Alpha, Washington
Current Conditions -  °F | °C
As of 10:15 PM on Saturday 20 Dec 2014 (Local Time) from KCLS Reporting Station
Light Rain Light Rain  
Wind Chill: 13°   Ceiling: 1100
Heat Index: 13°   Visibility: 3mi
Dew Point: 13°   Wind: 5mph
Humidity: 100%   Direction: 250°WSW
Pressure: 29.62"   Gusts: 15mph
Location:  46.5995°N, 122.665°W
Report Text: KCLS 210615Z AUTO 25004G13KT 3SM -RA BKN011 BKN017 OVC035 13/13 A2962 RMK AO2
Loading
Personal Weather Stations






























Interactive Weather Map New forecast layout! Learn more

10-Day Weather Forecast

Advertisements
Track Severe Weather on mobile